Kitchener, Canada
Current Conditions -  °F | °C
As of 3:00 PM on Saturday 25 Oct 2014 (Local Time) from CYKF Reporting Station
Overcast Overcast  
Wind Chill: 59°   Ceiling: 2400
Heat Index: 59°   Visibility: 9mi
Dew Point: 48°   Wind: 17mph
Humidity: 67%   Direction: 270°W
Pressure: 29.63"   Gusts: 26mph
Location:  43.45°N, 80.49°W
Report Text: CYKF 251900Z AUTO 27015G23KT 9SM BKN024 OVC030 15/09 A2963 RMK SLP036 DENSITY ALT 1600FT
Loading
Personal Weather Stations






























Interactive Weather Map
Tropical Storm Tracking
New forecast layout! Learn more

10-Day Weather Forecast

Advertisements
Track Severe Weather on mobile